sensor_id;sensor_type;location;lat;lon;timestamp;temperature;humidity
69031;DHT22;56083;48.774;8.942;2023-03-31T00:01:47;9.70;99.90
69031;DHT22;56083;48.774;8.942;2023-03-31T00:04:13;9.60;99.90
69031;DHT22;56083;48.774;8.942;2023-03-31T00:06:40;9.50;99.90
69031;DHT22;56083;48.774;8.942;2023-03-31T00:09:09;9.50;99.90
69031;DHT22;56083;48.774;8.942;2023-03-31T00:11:35;9.50;99.90
69031;DHT22;56083;48.774;8.942;2023-03-31T00:14:02;9.40;99.90
69031;DHT22;56083;48.774;8.942;2023-03-31T00:16:28;9.40;99.90
69031;DHT22;56083;48.774;8.942;2023-03-31T00:18:54;9.40;99.90
69031;DHT22;56083;48.774;8.942;2023-03-31T00:21:22;9.40;99.90
69031;DHT22;56083;48.774;8.942;2023-03-31T00:23:56;9.40;99.90
69031;DHT22;56083;48.774;8.942;2023-03-31T00:26:22;9.40;99.90
69031;DHT22;56083;48.774;8.942;2023-03-31T00:28:48;9.50;99.90
69031;DHT22;56083;48.774;8.942;2023-03-31T00:31:14;9.50;99.90
69031;DHT22;56083;48.774;8.942;2023-03-31T00:33:40;9.40;99.90
69031;DHT22;56083;48.774;8.942;2023-03-31T00:36:07;9.40;99.90
69031;DHT22;56083;48.774;8.942;2023-03-31T00:38:33;9.30;99.90
69031;DHT22;56083;48.774;8.942;2023-03-31T00:40:59;9.30;99.90
69031;DHT22;56083;48.774;8.942;2023-03-31T00:43:31;9.40;99.90
69031;DHT22;56083;48.774;8.942;2023-03-31T00:46:19;9.40;99.90
69031;DHT22;56083;48.774;8.942;2023-03-31T00:48:50;9.60;99.90
69031;DHT22;56083;48.774;8.942;2023-03-31T00:51:19;9.80;99.90
69031;DHT22;56083;48.774;8.942;2023-03-31T00:53:50;9.80;99.90
69031;DHT22;56083;48.774;8.942;2023-03-31T00:56:20;9.90;99.90
69031;DHT22;56083;48.774;8.942;2023-03-31T00:58:46;10.00;99.90
69031;DHT22;56083;48.774;8.942;2023-03-31T01:01:16;10.00;99.90
69031;DHT22;56083;48.774;8.942;2023-03-31T01:03:44;10.10;99.90
69031;DHT22;56083;48.774;8.942;2023-03-31T01:06:15;10.20;99.90
69031;DHT22;56083;48.774;8.942;2023-03-31T01:08:47;10.20;99.90
69031;DHT22;56083;48.774;8.942;2023-03-31T01:11:15;10.20;99.90
69031;DHT22;56083;48.774;8.942;2023-03-31T01:13:43;10.20;99.90
69031;DHT22;56083;48.774;8.942;2023-03-31T01:16:10;10.20;99.90
69031;DHT22;56083;48.774;8.942;2023-03-31T01:18:36;10.20;99.90
69031;DHT22;56083;48.774;8.942;2023-03-31T01:44:17;10.90;99.90
69031;DHT22;56083;48.774;8.942;2023-03-31T01:46:59;10.90;99.90
69031;DHT22;56083;48.774;8.942;2023-03-31T01:57:35;10.20;99.90
69031;DHT22;56083;48.774;8.942;2023-03-31T02:00:15;10.00;99.90
69031;DHT22;56083;48.774;8.942;2023-03-31T02:02:44;9.90;99.90
69031;DHT22;56083;48.774;8.942;2023-03-31T02:05:16;9.80;99.90
69031;DHT22;56083;48.774;8.942;2023-03-31T02:07:48;9.70;99.90
69031;DHT22;56083;48.774;8.942;2023-03-31T02:10:16;9.60;99.90
69031;DHT22;56083;48.774;8.942;2023-03-31T02:12:44;9.50;99.90
69031;DHT22;56083;48.774;8.942;2023-03-31T02:15:14;9.50;99.90
69031;DHT22;56083;48.774;8.942;2023-03-31T02:17:44;9.50;99.90
69031;DHT22;56083;48.774;8.942;2023-03-31T02:20:13;9.40;99.90
69031;DHT22;56083;48.774;8.942;2023-03-31T02:22:42;9.40;99.90
69031;DHT22;56083;48.774;8.942;2023-03-31T02:25:12;9.30;99.90
69031;DHT22;56083;48.774;8.942;2023-03-31T02:27:43;9.30;99.90
69031;DHT22;56083;48.774;8.942;2023-03-31T02:30:12;9.30;99.90
69031;DHT22;56083;48.774;8.942;2023-03-31T02:32:40;9.20;99.90
69031;DHT22;56083;48.774;8.942;2023-03-31T02:35:11;9.20;99.90
69031;DHT22;56083;48.774;8.942;2023-03-31T02:37:38;9.30;99.90
69031;DHT22;56083;48.774;8.942;2023-03-31T02:40:07;9.20;99.90
69031;DHT22;56083;48.774;8.942;2023-03-31T02:42:39;9.20;99.90
69031;DHT22;56083;48.774;8.942;2023-03-31T02:45:34;9.20;99.90
69031;DHT22;56083;48.774;8.942;2023-03-31T02:47:52;9.20;99.90
69031;DHT22;56083;48.774;8.942;2023-03-31T02:50:22;9.30;99.90
69031;DHT22;56083;48.774;8.942;2023-03-31T02:52:57;9.20;99.90
69031;DHT22;56083;48.774;8.942;2023-03-31T02:58:44;9.20;99.90
69031;DHT22;56083;48.774;8.942;2023-03-31T03:12:25;9.00;99.90
69031;DHT22;56083;48.774;8.942;2023-03-31T03:14:55;9.00;99.90
69031;DHT22;56083;48.774;8.942;2023-03-31T03:17:44;8.90;99.90
69031;DHT22;56083;48.774;8.942;2023-03-31T03:20:11;8.90;99.90
69031;DHT22;56083;48.774;8.942;2023-03-31T03:22:37;8.80;99.90
69031;DHT22;56083;48.774;8.942;2023-03-31T03:25:07;8.70;99.90
69031;DHT22;56083;48.774;8.942;2023-03-31T03:27:36;8.60;99.90
69031;DHT22;56083;48.774;8.942;2023-03-31T03:30:07;8.60;99.90
69031;DHT22;56083;48.774;8.942;2023-03-31T03:32:33;8.50;99.90
69031;DHT22;56083;48.774;8.942;2023-03-31T03:35:00;8.50;99.90
69031;DHT22;56083;48.774;8.942;2023-03-31T03:37:26;8.50;99.90
69031;DHT22;56083;48.774;8.942;2023-03-31T03:39:52;8.50;99.90
69031;DHT22;56083;48.774;8.942;2023-03-31T03:42:17;8.60;99.90
69031;DHT22;56083;48.774;8.942;2023-03-31T03:44:43;8.60;99.90
69031;DHT22;56083;48.774;8.942;2023-03-31T03:47:08;8.60;99.90
69031;DHT22;56083;48.774;8.942;2023-03-31T03:49:34;8.60;99.90
69031;DHT22;56083;48.774;8.942;2023-03-31T03:52:00;8.60;99.90
69031;DHT22;56083;48.774;8.942;2023-03-31T03:54:25;8.60;99.90
69031;DHT22;56083;48.774;8.942;2023-03-31T03:56:51;8.50;99.90
69031;DHT22;56083;48.774;8.942;2023-03-31T03:59:16;8.50;99.90
69031;DHT22;56083;48.774;8.942;2023-03-31T04:01:42;8.50;99.90
69031;DHT22;56083;48.774;8.942;2023-03-31T04:04:08;8.40;99.90
69031;DHT22;56083;48.774;8.942;2023-03-31T04:06:34;8.40;99.90
69031;DHT22;56083;48.774;8.942;2023-03-31T04:09:00;8.30;99.90
69031;DHT22;56083;48.774;8.942;2023-03-31T04:11:26;8.30;99.90
69031;DHT22;56083;48.774;8.942;2023-03-31T04:13:52;8.30;99.90
69031;DHT22;56083;48.774;8.942;2023-03-31T04:16:18;8.30;99.90
69031;DHT22;56083;48.774;8.942;2023-03-31T04:18:44;8.40;99.90
69031;DHT22;56083;48.774;8.942;2023-03-31T04:21:11;8.40;99.90
69031;DHT22;56083;48.774;8.942;2023-03-31T04:23:40;8.50;99.90
69031;DHT22;56083;48.774;8.942;2023-03-31T04:26:14;8.50;99.90
69031;DHT22;56083;48.774;8.942;2023-03-31T04:28:40;8.50;99.90
69031;DHT22;56083;48.774;8.942;2023-03-31T04:31:10;8.50;99.90
69031;DHT22;56083;48.774;8.942;2023-03-31T04:33:42;8.60;99.90
69031;DHT22;56083;48.774;8.942;2023-03-31T04:36:10;8.70;99.90
69031;DHT22;56083;48.774;8.942;2023-03-31T04:38:42;8.80;99.90
69031;DHT22;56083;48.774;8.942;2023-03-31T04:41:12;8.80;99.90
69031;DHT22;56083;48.774;8.942;2023-03-31T04:43:38;8.80;99.90
69031;DHT22;56083;48.774;8.942;2023-03-31T04:46:03;8.80;99.90
69031;DHT22;56083;48.774;8.942;2023-03-31T04:48:29;8.80;99.90
69031;DHT22;56083;48.774;8.942;2023-03-31T04:50:55;8.80;99.90
69031;DHT22;56083;48.774;8.942;2023-03-31T04:53:20;8.70;99.90
69031;DHT22;56083;48.774;8.942;2023-03-31T04:55:48;8.70;99.90
69031;DHT22;56083;48.774;8.942;2023-03-31T04:58:14;8.60;99.90
69031;DHT22;56083;48.774;8.942;2023-03-31T05:00:39;8.60;99.90
69031;DHT22;56083;48.774;8.942;2023-03-31T05:03:05;8.50;99.90
69031;DHT22;56083;48.774;8.942;2023-03-31T05:05:31;8.50;99.90
69031;DHT22;56083;48.774;8.942;2023-03-31T05:07:57;8.50;99.90
69031;DHT22;56083;48.774;8.942;2023-03-31T05:10:22;8.50;99.90
69031;DHT22;56083;48.774;8.942;2023-03-31T05:12:48;8.50;99.90
69031;DHT22;56083;48.774;8.942;2023-03-31T05:15:14;8.50;99.90
69031;DHT22;56083;48.774;8.942;2023-03-31T05:17:39;8.50;99.90
69031;DHT22;56083;48.774;8.942;2023-03-31T05:20:05;8.50;99.90
69031;DHT22;56083;48.774;8.942;2023-03-31T05:22:36;8.50;99.90
69031;DHT22;56083;48.774;8.942;2023-03-31T05:25:04;8.50;99.90
69031;DHT22;56083;48.774;8.942;2023-03-31T05:27:31;8.50;99.90
69031;DHT22;56083;48.774;8.942;2023-03-31T05:29:57;8.50;99.90
69031;DHT22;56083;48.774;8.942;2023-03-31T05:32:23;8.40;99.90
69031;DHT22;56083;48.774;8.942;2023-03-31T05:34:49;8.40;99.90
69031;DHT22;56083;48.774;8.942;2023-03-31T05:37:17;8.40;99.90
69031;DHT22;56083;48.774;8.942;2023-03-31T05:39:43;8.30;99.90
69031;DHT22;56083;48.774;8.942;2023-03-31T05:42:08;8.30;99.90
69031;DHT22;56083;48.774;8.942;2023-03-31T05:44:34;8.30;99.90
69031;DHT22;56083;48.774;8.942;2023-03-31T05:47:00;8.30;99.90
69031;DHT22;56083;48.774;8.942;2023-03-31T05:49:25;8.30;99.90
69031;DHT22;56083;48.774;8.942;2023-03-31T05:51:51;8.30;99.90
69031;DHT22;56083;48.774;8.942;2023-03-31T05:54:17;8.30;99.90
69031;DHT22;56083;48.774;8.942;2023-03-31T05:56:43;8.30;99.90
69031;DHT22;56083;48.774;8.942;2023-03-31T05:59:08;8.20;99.90
69031;DHT22;56083;48.774;8.942;2023-03-31T06:01:34;8.20;99.90
69031;DHT22;56083;48.774;8.942;2023-03-31T06:04:00;8.30;99.90
69031;DHT22;56083;48.774;8.942;2023-03-31T06:06:26;8.30;99.90
69031;DHT22;56083;48.774;8.942;2023-03-31T06:08:52;8.30;99.90
69031;DHT22;56083;48.774;8.942;2023-03-31T06:11:20;8.40;99.90
69031;DHT22;56083;48.774;8.942;2023-03-31T06:13:46;8.30;99.90
69031;DHT22;56083;48.774;8.942;2023-03-31T06:16:14;8.40;99.90
69031;DHT22;56083;48.774;8.942;2023-03-31T06:18:40;8.40;99.90
69031;DHT22;56083;48.774;8.942;2023-03-31T06:21:06;8.40;99.90
69031;DHT22;56083;48.774;8.942;2023-03-31T06:23:33;8.40;99.90
69031;DHT22;56083;48.774;8.942;2023-03-31T06:26:04;8.50;99.90
69031;DHT22;56083;48.774;8.942;2023-03-31T06:28:30;8.50;99.90
69031;DHT22;56083;48.774;8.942;2023-03-31T06:31:08;8.40;99.90
69031;DHT22;56083;48.774;8.942;2023-03-31T06:33:34;8.40;99.90
69031;DHT22;56083;48.774;8.942;2023-03-31T06:36:01;8.40;99.90
69031;DHT22;56083;48.774;8.942;2023-03-31T06:38:30;8.40;99.90
69031;DHT22;56083;48.774;8.942;2023-03-31T06:40:55;8.40;99.90
69031;DHT22;56083;48.774;8.942;2023-03-31T06:43:21;8.30;99.90
69031;DHT22;56083;48.774;8.942;2023-03-31T06:45:47;8.30;99.90
69031;DHT22;56083;48.774;8.942;2023-03-31T06:48:13;8.30;99.90
69031;DHT22;56083;48.774;8.942;2023-03-31T06:50:39;8.30;99.90
69031;DHT22;56083;48.774;8.942;2023-03-31T06:53:09;8.40;99.90
69031;DHT22;56083;48.774;8.942;2023-03-31T06:55:36;8.40;99.90
69031;DHT22;56083;48.774;8.942;2023-03-31T06:58:02;8.50;99.90
69031;DHT22;56083;48.774;8.942;2023-03-31T07:00:28;8.50;99.90
69031;DHT22;56083;48.774;8.942;2023-03-31T07:02:54;8.60;99.90
69031;DHT22;56083;48.774;8.942;2023-03-31T07:05:20;8.60;99.90
69031;DHT22;56083;48.774;8.942;2023-03-31T07:07:55;8.60;99.90
69031;DHT22;56083;48.774;8.942;2023-03-31T07:10:22;8.70;99.90
69031;DHT22;56083;48.774;8.942;2023-03-31T07:12:48;8.70;99.90
69031;DHT22;56083;48.774;8.942;2023-03-31T07:15:14;8.70;99.90
69031;DHT22;56083;48.774;8.942;2023-03-31T07:17:40;8.70;99.90
69031;DHT22;56083;48.774;8.942;2023-03-31T07:20:08;8.80;99.90
69031;DHT22;56083;48.774;8.942;2023-03-31T07:22:37;8.70;99.90
69031;DHT22;56083;48.774;8.942;2023-03-31T07:25:03;8.70;99.90
69031;DHT22;56083;48.774;8.942;2023-03-31T07:27:29;8.70;99.90
69031;DHT22;56083;48.774;8.942;2023-03-31T07:29:54;8.80;99.90
69031;DHT22;56083;48.774;8.942;2023-03-31T07:32:20;8.80;99.90
69031;DHT22;56083;48.774;8.942;2023-03-31T07:34:47;9.00;99.90
69031;DHT22;56083;48.774;8.942;2023-03-31T07:37:13;9.60;99.90
69031;DHT22;56083;48.774;8.942;2023-03-31T07:39:39;10.10;99.90
69031;DHT22;56083;48.774;8.942;2023-03-31T07:42:04;10.30;99.90
69031;DHT22;56083;48.774;8.942;2023-03-31T07:44:33;10.70;99.90
69031;DHT22;56083;48.774;8.942;2023-03-31T07:46:58;11.10;99.90
69031;DHT22;56083;48.774;8.942;2023-03-31T07:49:29;11.30;99.90
69031;DHT22;56083;48.774;8.942;2023-03-31T07:51:55;11.40;99.90
69031;DHT22;56083;48.774;8.942;2023-03-31T07:54:20;11.70;99.90
69031;DHT22;56083;48.774;8.942;2023-03-31T07:56:46;11.90;99.90
69031;DHT22;56083;48.774;8.942;2023-03-31T07:59:12;12.00;99.90
69031;DHT22;56083;48.774;8.942;2023-03-31T08:01:37;12.20;99.90
69031;DHT22;56083;48.774;8.942;2023-03-31T08:04:03;12.50;99.90
69031;DHT22;56083;48.774;8.942;2023-03-31T08:06:28;12.60;99.90
69031;DHT22;56083;48.774;8.942;2023-03-31T08:08:54;12.90;99.90
69031;DHT22;56083;48.774;8.942;2023-03-31T08:11:20;13.20;99.90
69031;DHT22;56083;48.774;8.942;2023-03-31T08:13:46;12.80;99.90
69031;DHT22;56083;48.774;8.942;2023-03-31T08:16:12;12.50;99.90
69031;DHT22;56083;48.774;8.942;2023-03-31T08:18:37;13.10;99.90
69031;DHT22;56083;48.774;8.942;2023-03-31T08:21:03;13.70;99.90
69031;DHT22;56083;48.774;8.942;2023-03-31T08:23:29;14.20;99.90
69031;DHT22;56083;48.774;8.942;2023-03-31T08:28:34;14.10;99.90
69031;DHT22;56083;48.774;8.942;2023-03-31T08:31:06;14.30;99.90
69031;DHT22;56083;48.774;8.942;2023-03-31T08:33:33;14.30;99.90
69031;DHT22;56083;48.774;8.942;2023-03-31T08:36:03;15.00;99.90
69031;DHT22;56083;48.774;8.942;2023-03-31T08:38:30;15.60;99.90
69031;DHT22;56083;48.774;8.942;2023-03-31T08:41:05;16.00;99.90
69031;DHT22;56083;48.774;8.942;2023-03-31T08:43:42;16.70;99.90
69031;DHT22;56083;48.774;8.942;2023-03-31T08:46:11;16.70;99.90
69031;DHT22;56083;48.774;8.942;2023-03-31T08:48:41;16.10;99.90
69031;DHT22;56083;48.774;8.942;2023-03-31T08:51:17;16.40;99.90
69031;DHT22;56083;48.774;8.942;2023-03-31T08:54:04;16.40;99.90
69031;DHT22;56083;48.774;8.942;2023-03-31T08:56:35;16.60;99.90
69031;DHT22;56083;48.774;8.942;2023-03-31T08:59:05;16.70;99.90
69031;DHT22;56083;48.774;8.942;2023-03-31T09:06:58;17.50;99.90
69031;DHT22;56083;48.774;8.942;2023-03-31T09:12:20;18.20;99.90
69031;DHT22;56083;48.774;8.942;2023-03-31T09:15:31;17.20;99.90
69031;DHT22;56083;48.774;8.942;2023-03-31T09:17:47;16.10;99.90
69031;DHT22;56083;48.774;8.942;2023-03-31T09:20:24;16.30;99.90
69031;DHT22;56083;48.774;8.942;2023-03-31T09:23:04;16.90;99.90
69031;DHT22;56083;48.774;8.942;2023-03-31T09:25:35;17.40;99.90
69031;DHT22;56083;48.774;8.942;2023-03-31T09:28:03;17.10;99.90
69031;DHT22;56083;48.774;8.942;2023-03-31T09:30:34;17.10;99.90
69031;DHT22;56083;48.774;8.942;2023-03-31T09:33:21;17.20;99.90
69031;DHT22;56083;48.774;8.942;2023-03-31T09:35:51;16.70;99.90
69031;DHT22;56083;48.774;8.942;2023-03-31T09:38:17;16.50;99.90
69031;DHT22;56083;48.774;8.942;2023-03-31T09:40:43;17.20;99.90
69031;DHT22;56083;48.774;8.942;2023-03-31T09:43:20;18.40;99.90
69031;DHT22;56083;48.774;8.942;2023-03-31T09:45:47;18.70;99.90
69031;DHT22;56083;48.774;8.942;2023-03-31T09:48:19;18.90;99.90
69031;DHT22;56083;48.774;8.942;2023-03-31T09:50:59;18.10;99.90
69031;DHT22;56083;48.774;8.942;2023-03-31T09:53:39;17.10;99.90
69031;DHT22;56083;48.774;8.942;2023-03-31T09:56:07;16.40;99.90
69031;DHT22;56083;48.774;8.942;2023-03-31T09:58:40;16.00;99.90
69031;DHT22;56083;48.774;8.942;2023-03-31T10:01:09;15.60;99.90
69031;DHT22;56083;48.774;8.942;2023-03-31T10:04:02;16.10;99.90
69031;DHT22;56083;48.774;8.942;2023-03-31T10:06:40;17.80;99.90
69031;DHT22;56083;48.774;8.942;2023-03-31T10:09:09;18.60;99.90
69031;DHT22;56083;48.774;8.942;2023-03-31T10:11:36;18.60;99.90
69031;DHT22;56083;48.774;8.942;2023-03-31T10:14:12;18.90;99.90
69031;DHT22;56083;48.774;8.942;2023-03-31T10:16:57;19.30;99.90
69031;DHT22;56083;48.774;8.942;2023-03-31T10:19:31;19.30;99.90
69031;DHT22;56083;48.774;8.942;2023-03-31T10:24:39;18.30;99.90
69031;DHT22;56083;48.774;8.942;2023-03-31T10:27:12;17.30;99.90
69031;DHT22;56083;48.774;8.942;2023-03-31T10:29:39;16.50;99.90
69031;DHT22;56083;48.774;8.942;2023-03-31T10:32:21;16.10;99.90
69031;DHT22;56083;48.774;8.942;2023-03-31T10:34:48;16.70;99.90
69031;DHT22;56083;48.774;8.942;2023-03-31T10:37:17;17.10;99.90
69031;DHT22;56083;48.774;8.942;2023-03-31T10:39:44;17.40;99.90
69031;DHT22;56083;48.774;8.942;2023-03-31T10:42:18;17.60;99.90
69031;DHT22;56083;48.774;8.942;2023-03-31T10:44:45;17.20;99.90
69031;DHT22;56083;48.774;8.942;2023-03-31T10:47:20;16.50;99.90
69031;DHT22;56083;48.774;8.942;2023-03-31T10:49:49;16.20;99.90
69031;DHT22;56083;48.774;8.942;2023-03-31T10:52:21;15.70;99.90
69031;DHT22;56083;48.774;8.942;2023-03-31T10:54:58;15.30;99.90
69031;DHT22;56083;48.774;8.942;2023-03-31T10:57:44;15.00;99.90
69031;DHT22;56083;48.774;8.942;2023-03-31T11:06:03;14.40;99.90
69031;DHT22;56083;48.774;8.942;2023-03-31T11:08:39;13.90;99.90
69031;DHT22;56083;48.774;8.942;2023-03-31T11:14:35;10.90;99.90
69031;DHT22;56083;48.774;8.942;2023-03-31T11:25:06;8.00;99.90
69031;DHT22;56083;48.774;8.942;2023-03-31T11:30:29;7.90;99.90
69031;DHT22;56083;48.774;8.942;2023-03-31T11:33:58;8.00;99.90
69031;DHT22;56083;48.774;8.942;2023-03-31T11:36:20;8.10;99.90
69031;DHT22;56083;48.774;8.942;2023-03-31T11:41:46;8.20;99.90
69031;DHT22;56083;48.774;8.942;2023-03-31T11:44:16;8.20;99.90
69031;DHT22;56083;48.774;8.942;2023-03-31T11:46:53;8.40;99.90
69031;DHT22;56083;48.774;8.942;2023-03-31T11:52:02;8.70;99.90
69031;DHT22;56083;48.774;8.942;2023-03-31T11:54:55;8.90;99.90
69031;DHT22;56083;48.774;8.942;2023-03-31T12:00:20;10.90;99.90
69031;DHT22;56083;48.774;8.942;2023-03-31T12:02:53;12.40;99.90
69031;DHT22;56083;48.774;8.942;2023-03-31T12:05:20;12.90;99.90
69031;DHT22;56083;48.774;8.942;2023-03-31T12:07:48;13.40;99.90
69031;DHT22;56083;48.774;8.942;2023-03-31T12:10:21;14.30;99.90
69031;DHT22;56083;48.774;8.942;2023-03-31T12:16:16;14.60;99.90
69031;DHT22;56083;48.774;8.942;2023-03-31T12:18:45;14.80;99.90
69031;DHT22;56083;48.774;8.942;2023-03-31T12:21:14;14.90;99.90
69031;DHT22;56083;48.774;8.942;2023-03-31T12:23:43;15.80;99.90
69031;DHT22;56083;48.774;8.942;2023-03-31T12:28:59;17.90;99.90
69031;DHT22;56083;48.774;8.942;2023-03-31T12:31:28;17.70;99.90
69031;DHT22;56083;48.774;8.942;2023-03-31T12:34:02;18.10;99.90
69031;DHT22;56083;48.774;8.942;2023-03-31T12:39:49;19.30;99.90
69031;DHT22;56083;48.774;8.942;2023-03-31T12:42:33;19.10;99.90
69031;DHT22;56083;48.774;8.942;2023-03-31T12:45:12;19.00;99.90
69031;DHT22;56083;48.774;8.942;2023-03-31T12:50:25;19.60;99.90
69031;DHT22;56083;48.774;8.942;2023-03-31T12:55:48;19.40;99.90
69031;DHT22;56083;48.774;8.942;2023-03-31T13:06:02;14.10;99.90
69031;DHT22;56083;48.774;8.942;2023-03-31T13:11:16;12.00;99.90
69031;DHT22;56083;48.774;8.942;2023-03-31T13:16:36;10.50;99.90
69031;DHT22;56083;48.774;8.942;2023-03-31T13:19:02;10.00;99.90
69031;DHT22;56083;48.774;8.942;2023-03-31T13:21:28;9.50;99.90
69031;DHT22;56083;48.774;8.942;2023-03-31T13:23:58;9.30;99.90
69031;DHT22;56083;48.774;8.942;2023-03-31T13:26:35;9.40;99.90
69031;DHT22;56083;48.774;8.942;2023-03-31T13:29:20;9.50;99.90
69031;DHT22;56083;48.774;8.942;2023-03-31T13:34:38;9.40;99.90
69031;DHT22;56083;48.774;8.942;2023-03-31T13:37:16;9.00;99.90
69031;DHT22;56083;48.774;8.942;2023-03-31T13:43:08;8.60;99.90
69031;DHT22;56083;48.774;8.942;2023-03-31T13:48:38;8.30;99.90
69031;DHT22;56083;48.774;8.942;2023-03-31T13:59:29;8.20;99.90
69031;DHT22;56083;48.774;8.942;2023-03-31T14:07:54;10.70;99.90
69031;DHT22;56083;48.774;8.942;2023-03-31T14:10:34;12.20;99.90
69031;DHT22;56083;48.774;8.942;2023-03-31T14:13:13;13.30;99.90
69031;DHT22;56083;48.774;8.942;2023-03-31T14:15:50;14.30;99.90
69031;DHT22;56083;48.774;8.942;2023-03-31T14:26:56;15.40;99.90
69031;DHT22;56083;48.774;8.942;2023-03-31T14:37:18;15.90;99.90
69031;DHT22;56083;48.774;8.942;2023-03-31T14:39:50;16.00;99.90
69031;DHT22;56083;48.774;8.942;2023-03-31T14:42:20;15.30;99.90
69031;DHT22;56083;48.774;8.942;2023-03-31T14:44:46;15.20;99.90
69031;DHT22;56083;48.774;8.942;2023-03-31T14:47:26;15.20;99.90
69031;DHT22;56083;48.774;8.942;2023-03-31T14:50:02;15.30;99.90
69031;DHT22;56083;48.774;8.942;2023-03-31T14:52:30;15.50;99.90
69031;DHT22;56083;48.774;8.942;2023-03-31T14:54:58;15.70;99.90
69031;DHT22;56083;48.774;8.942;2023-03-31T14:57:31;15.60;99.90
69031;DHT22;56083;48.774;8.942;2023-03-31T14:59:58;14.80;99.90
69031;DHT22;56083;48.774;8.942;2023-03-31T15:02:38;14.30;99.90
69031;DHT22;56083;48.774;8.942;2023-03-31T15:05:07;14.00;99.90
69031;DHT22;56083;48.774;8.942;2023-03-31T15:07:34;13.60;99.90
69031;DHT22;56083;48.774;8.942;2023-03-31T15:10:01;13.40;99.90
69031;DHT22;56083;48.774;8.942;2023-03-31T15:12:28;13.60;99.90
69031;DHT22;56083;48.774;8.942;2023-03-31T15:14:59;14.40;99.90
69031;DHT22;56083;48.774;8.942;2023-03-31T15:17:34;15.40;99.90
69031;DHT22;56083;48.774;8.942;2023-03-31T15:20:20;15.60;99.90
69031;DHT22;56083;48.774;8.942;2023-03-31T15:22:46;15.80;99.90
69031;DHT22;56083;48.774;8.942;2023-03-31T15:25:13;15.40;99.90
69031;DHT22;56083;48.774;8.942;2023-03-31T15:27:48;15.20;99.90
69031;DHT22;56083;48.774;8.942;2023-03-31T15:30:18;14.80;99.90
69031;DHT22;56083;48.774;8.942;2023-03-31T15:32:45;13.90;99.90
69031;DHT22;56083;48.774;8.942;2023-03-31T15:35:28;13.50;99.90
69031;DHT22;56083;48.774;8.942;2023-03-31T15:37:57;13.10;99.90
69031;DHT22;56083;48.774;8.942;2023-03-31T15:40:28;12.80;99.90
69031;DHT22;56083;48.774;8.942;2023-03-31T15:43:04;12.70;99.90
69031;DHT22;56083;48.774;8.942;2023-03-31T15:45:37;12.60;99.90
69031;DHT22;56083;48.774;8.942;2023-03-31T15:48:22;12.60;99.90
69031;DHT22;56083;48.774;8.942;2023-03-31T15:50:49;12.70;99.90
69031;DHT22;56083;48.774;8.942;2023-03-31T15:53:34;12.50;99.90
69031;DHT22;56083;48.774;8.942;2023-03-31T15:56:00;12.30;99.90
69031;DHT22;56083;48.774;8.942;2023-03-31T15:58:53;12.20;99.90
69031;DHT22;56083;48.774;8.942;2023-03-31T16:01:19;12.00;99.90
69031;DHT22;56083;48.774;8.942;2023-03-31T16:03:46;11.80;99.90
69031;DHT22;56083;48.774;8.942;2023-03-31T16:06:22;11.70;99.90
69031;DHT22;56083;48.774;8.942;2023-03-31T16:08:58;11.40;99.90
69031;DHT22;56083;48.774;8.942;2023-03-31T16:11:35;11.10;99.90
69031;DHT22;56083;48.774;8.942;2023-03-31T16:14:10;10.70;99.90
69031;DHT22;56083;48.774;8.942;2023-03-31T16:16:36;10.50;99.90
69031;DHT22;56083;48.774;8.942;2023-03-31T16:19:07;10.20;99.90
69031;DHT22;56083;48.774;8.942;2023-03-31T16:21:46;10.20;99.90
69031;DHT22;56083;48.774;8.942;2023-03-31T16:24:14;10.10;99.90
69031;DHT22;56083;48.774;8.942;2023-03-31T16:26:41;9.90;99.90
69031;DHT22;56083;48.774;8.942;2023-03-31T16:29:07;9.60;99.90
69031;DHT22;56083;48.774;8.942;2023-03-31T16:31:38;9.40;99.90
69031;DHT22;56083;48.774;8.942;2023-03-31T16:34:06;9.30;99.90
69031;DHT22;56083;48.774;8.942;2023-03-31T16:36:33;9.20;99.90
69031;DHT22;56083;48.774;8.942;2023-03-31T16:39:00;9.30;99.90
69031;DHT22;56083;48.774;8.942;2023-03-31T16:41:30;9.40;99.90
69031;DHT22;56083;48.774;8.942;2023-03-31T16:43:57;9.60;99.90
69031;DHT22;56083;48.774;8.942;2023-03-31T16:46:23;9.70;99.90
69031;DHT22;56083;48.774;8.942;2023-03-31T16:48:49;9.60;99.90
69031;DHT22;56083;48.774;8.942;2023-03-31T16:51:15;9.50;99.90
69031;DHT22;56083;48.774;8.942;2023-03-31T16:53:42;9.50;99.90
69031;DHT22;56083;48.774;8.942;2023-03-31T16:56:08;9.40;99.90
69031;DHT22;56083;48.774;8.942;2023-03-31T16:58:36;9.30;99.90
69031;DHT22;56083;48.774;8.942;2023-03-31T17:01:03;9.20;99.90
69031;DHT22;56083;48.774;8.942;2023-03-31T17:03:30;9.10;99.90
69031;DHT22;56083;48.774;8.942;2023-03-31T17:05:57;9.00;99.90
69031;DHT22;56083;48.774;8.942;2023-03-31T17:08:24;9.00;99.90
69031;DHT22;56083;48.774;8.942;2023-03-31T17:10:59;8.90;99.90
69031;DHT22;56083;48.774;8.942;2023-03-31T17:13:25;8.90;99.90
69031;DHT22;56083;48.774;8.942;2023-03-31T17:15:51;8.80;99.90
69031;DHT22;56083;48.774;8.942;2023-03-31T17:18:18;8.70;99.90
69031;DHT22;56083;48.774;8.942;2023-03-31T17:20:43;8.70;99.90
69031;DHT22;56083;48.774;8.942;2023-03-31T17:23:09;8.80;99.90
69031;DHT22;56083;48.774;8.942;2023-03-31T17:25:34;8.80;99.90
69031;DHT22;56083;48.774;8.942;2023-03-31T17:28:02;8.80;99.90
69031;DHT22;56083;48.774;8.942;2023-03-31T17:30:29;8.90;99.90
69031;DHT22;56083;48.774;8.942;2023-03-31T17:32:55;8.90;99.90
69031;DHT22;56083;48.774;8.942;2023-03-31T17:35:21;8.90;99.90
69031;DHT22;56083;48.774;8.942;2023-03-31T17:37:50;8.80;99.90
69031;DHT22;56083;48.774;8.942;2023-03-31T17:40:23;8.80;99.90
69031;DHT22;56083;48.774;8.942;2023-03-31T17:42:49;8.80;99.90
69031;DHT22;56083;48.774;8.942;2023-03-31T17:45:15;8.70;99.90
69031;DHT22;56083;48.774;8.942;2023-03-31T17:47:40;8.70;99.90
69031;DHT22;56083;48.774;8.942;2023-03-31T17:50:07;8.70;99.90
69031;DHT22;56083;48.774;8.942;2023-03-31T17:52:35;8.60;99.90
69031;DHT22;56083;48.774;8.942;2023-03-31T17:55:02;8.60;99.90
69031;DHT22;56083;48.774;8.942;2023-03-31T17:57:29;8.60;99.90
69031;DHT22;56083;48.774;8.942;2023-03-31T17:59:55;8.60;99.90
69031;DHT22;56083;48.774;8.942;2023-03-31T18:02:22;8.60;99.90
69031;DHT22;56083;48.774;8.942;2023-03-31T18:04:47;8.50;99.90
69031;DHT22;56083;48.774;8.942;2023-03-31T18:07:13;8.50;99.90
69031;DHT22;56083;48.774;8.942;2023-03-31T18:09:39;8.40;99.90
69031;DHT22;56083;48.774;8.942;2023-03-31T18:12:04;8.40;99.90
69031;DHT22;56083;48.774;8.942;2023-03-31T18:14:30;8.30;99.90
69031;DHT22;56083;48.774;8.942;2023-03-31T18:16:57;8.30;99.90
69031;DHT22;56083;48.774;8.942;2023-03-31T18:19:23;8.20;99.90
69031;DHT22;56083;48.774;8.942;2023-03-31T18:21:49;8.10;99.90
69031;DHT22;56083;48.774;8.942;2023-03-31T18:24:15;7.90;99.90
69031;DHT22;56083;48.774;8.942;2023-03-31T18:26:43;7.90;99.90
69031;DHT22;56083;48.774;8.942;2023-03-31T18:29:08;7.80;99.90
69031;DHT22;56083;48.774;8.942;2023-03-31T18:31:34;7.70;99.90